Emma, Kentucky
Current Conditions -  °F | °C
As of 3:15 PM on Friday 19 Dec 2014 (Local Time) from KSJS Reporting Station
Clear Clear  
Wind Chill: 35°   Ceiling: Unl
Heat Index: 35°   Visibility: 10mi
Dew Point: 25°   Wind: 3mph
Humidity: 67%   Direction: 30°NNE
Pressure: 30.2"   Gusts: NA
Location:  37.6405°N, 82.8256°W
Report Text: KSJS 192015Z AUTO 03003KT 10SM CLR 02/M04 A3020 RMK AO2 T00181037
Loading
Personal Weather Stations






























Interactive Weather Map New forecast layout! Learn more

10-Day Weather Forecast

Advertisements
Track Severe Weather on mobile